createdAt,value
2022-08-23T00:01:24.403Z,21.00
2022-08-23T00:03:51.340Z,21.00
2022-08-23T00:06:18.307Z,21.00
2022-08-23T00:08:48.779Z,20.90
2022-08-23T00:11:33.897Z,20.90
2022-08-23T00:14:01.437Z,20.90
2022-08-23T00:16:28.028Z,20.80
2022-08-23T00:18:54.605Z,20.70
2022-08-23T00:21:21.329Z,20.70
2022-08-23T00:23:47.936Z,20.80
2022-08-23T00:26:14.570Z,20.80
2022-08-23T00:28:41.201Z,20.70
2022-08-23T00:31:07.816Z,20.70
2022-08-23T00:33:35.173Z,20.70
2022-08-23T00:36:01.771Z,20.60
2022-08-23T00:38:34.326Z,20.60
2022-08-23T00:41:01.656Z,20.60
2022-08-23T00:43:54.109Z,20.50
2022-08-23T00:46:52.797Z,20.50
2022-08-23T00:49:19.405Z,20.40
2022-08-23T00:51:52.995Z,20.50
2022-08-23T00:54:20.673Z,20.40
2022-08-23T00:56:47.353Z,20.40
2022-08-23T00:59:13.920Z,20.40
2022-08-23T01:01:41.591Z,20.50
2022-08-23T01:04:08.197Z,20.50
2022-08-23T01:06:39.576Z,20.50
2022-08-23T01:09:08.089Z,20.40
2022-08-23T01:11:39.456Z,20.40
2022-08-23T01:14:06.008Z,20.40
2022-08-23T01:16:52.817Z,20.40
2022-08-23T01:19:24.657Z,20.40
2022-08-23T01:21:57.490Z,20.30
2022-08-23T01:25:06.233Z,20.30
2022-08-23T01:27:12.207Z,20.30
2022-08-23T01:29:39.147Z,20.30
2022-08-23T01:32:05.712Z,20.20
2022-08-23T01:34:35.139Z,20.20
2022-08-23T01:37:04.351Z,20.10
2022-08-23T01:39:31.348Z,20.10
2022-08-23T01:41:58.747Z,20.20
2022-08-23T01:44:27.428Z,20.10
2022-08-23T01:46:57.903Z,20.10
2022-08-23T01:49:24.708Z,20.10
2022-08-23T01:51:51.407Z,20.10
2022-08-23T01:54:17.995Z,20.10
2022-08-23T01:56:45.177Z,20.10
2022-08-23T01:59:12.412Z,20.10
2022-08-23T02:01:39.208Z,20.10
2022-08-23T02:04:05.846Z,20.00
2022-08-23T02:06:32.479Z,20.00
2022-08-23T02:09:03.467Z,20.00
2022-08-23T02:11:34.464Z,19.90
2022-08-23T02:14:02.403Z,19.90
2022-08-23T02:16:29.998Z,19.90
2022-08-23T02:18:57.159Z,19.80
2022-08-23T02:21:23.924Z,19.80
2022-08-23T02:23:51.550Z,19.80
2022-08-23T02:26:18.529Z,19.70
2022-08-23T02:28:45.167Z,19.70
2022-08-23T02:31:11.893Z,19.70
2022-08-23T02:36:23.266Z,19.70
2022-08-23T02:38:49.922Z,19.70
2022-08-23T02:41:17.582Z,19.60
2022-08-23T02:43:44.231Z,19.50
2022-08-23T02:46:10.893Z,19.50
2022-08-23T02:48:37.575Z,19.50
2022-08-23T02:51:05.409Z,19.40
2022-08-23T02:53:32.127Z,19.40
2022-08-23T02:55:58.823Z,19.40
2022-08-23T02:58:26.058Z,19.40
2022-08-23T03:00:52.737Z,19.40
2022-08-23T03:03:19.469Z,19.30
2022-08-23T03:05:49.302Z,19.30
2022-08-23T03:08:16.138Z,19.30
2022-08-23T03:10:43.520Z,19.30
2022-08-23T03:13:10.258Z,19.20
2022-08-23T03:15:36.928Z,19.20
2022-08-23T03:18:03.619Z,19.10
2022-08-23T03:20:30.327Z,19.10
2022-08-23T03:22:57.035Z,19.10
2022-08-23T03:25:23.712Z,19.00
2022-08-23T03:27:50.390Z,19.00
2022-08-23T03:30:20.016Z,19.00
2022-08-23T03:32:48.969Z,19.00
2022-08-23T03:35:16.313Z,18.90
2022-08-23T03:37:42.895Z,18.90
2022-08-23T03:40:09.902Z,18.90
2022-08-23T03:42:36.552Z,18.90
2022-08-23T03:45:03.151Z,18.90
2022-08-23T03:47:29.732Z,18.80
2022-08-23T03:49:58.525Z,18.90
2022-08-23T03:52:25.096Z,18.90
2022-08-23T03:54:51.696Z,18.80
2022-08-23T03:57:18.285Z,18.80
2022-08-23T03:59:44.869Z,18.80
2022-08-23T04:02:12.138Z,18.70
2022-08-23T04:04:38.772Z,18.80
2022-08-23T04:07:05.411Z,18.80
2022-08-23T04:09:31.982Z,18.70
2022-08-23T04:12:00.301Z,18.70
2022-08-23T04:14:27.352Z,18.70
2022-08-23T04:16:53.947Z,18.70
2022-08-23T04:19:22.355Z,18.60
2022-08-23T04:21:49.712Z,18.70
2022-08-23T04:24:17.038Z,18.80
2022-08-23T04:26:43.712Z,18.90
2022-08-23T04:29:24.875Z,18.80
2022-08-23T04:32:02.749Z,18.80
2022-08-23T04:34:33.719Z,18.90
2022-08-23T04:37:00.733Z,19.00
2022-08-23T04:39:28.841Z,19.00
2022-08-23T04:42:15.036Z,19.00
2022-08-23T04:44:41.710Z,19.10
2022-08-23T04:47:08.415Z,19.00
2022-08-23T04:49:34.997Z,19.10
2022-08-23T04:52:01.689Z,19.10
2022-08-23T04:54:29.259Z,19.10
2022-08-23T04:56:56.447Z,19.20
2022-08-23T04:59:23.015Z,19.40
2022-08-23T05:01:49.924Z,19.60
2022-08-23T05:04:16.523Z,19.60
2022-08-23T05:06:43.482Z,19.70
2022-08-23T05:09:10.207Z,19.70
2022-08-23T05:11:36.773Z,19.60
2022-08-23T05:14:03.526Z,19.70
2022-08-23T05:16:30.329Z,19.80
2022-08-23T05:18:56.902Z,20.00
2022-08-23T05:21:23.834Z,19.90
2022-08-23T05:23:54.954Z,19.80
2022-08-23T05:26:21.749Z,19.70
2022-08-23T05:28:48.473Z,19.60
2022-08-23T05:31:16.287Z,19.60
2022-08-23T05:33:43.337Z,19.60
2022-08-23T05:36:10.377Z,19.60
2022-08-23T05:38:36.968Z,19.70
2022-08-23T05:41:05.272Z,19.70
2022-08-23T05:43:33.672Z,19.70
2022-08-23T05:46:01.666Z,19.80
2022-08-23T05:48:30.484Z,19.80
2022-08-23T05:50:57.157Z,19.90
2022-08-23T05:53:23.765Z,20.00
2022-08-23T05:55:50.701Z,20.00
2022-08-23T05:58:17.357Z,20.00
2022-08-23T06:00:43.987Z,20.00
2022-08-23T06:03:10.622Z,20.10
2022-08-23T06:05:40.877Z,20.10
2022-08-23T06:08:07.530Z,20.10
2022-08-23T06:10:37.424Z,20.20
2022-08-23T06:13:05.910Z,20.20
2022-08-23T06:15:32.509Z,20.40
2022-08-23T06:17:59.211Z,20.50
2022-08-23T06:20:25.934Z,20.90
2022-08-23T06:22:52.537Z,21.30
2022-08-23T06:25:19.219Z,21.80
2022-08-23T06:27:45.829Z,23.00
2022-08-23T06:30:13.301Z,24.20
2022-08-23T06:32:40.000Z,25.70
2022-08-23T06:35:37.895Z,27.00
2022-08-23T06:37:53.269Z,27.90
2022-08-23T06:40:23.589Z,28.90
2022-08-23T06:42:50.270Z,29.80
2022-08-23T06:45:16.938Z,30.70
2022-08-23T06:47:43.518Z,31.70
2022-08-23T06:50:10.114Z,32.40
2022-08-23T06:52:36.860Z,32.60
2022-08-23T06:55:04.284Z,32.90
2022-08-23T06:57:32.383Z,33.10
2022-08-23T06:59:58.996Z,32.60
2022-08-23T07:02:28.147Z,32.50
2022-08-23T07:04:55.807Z,32.40
2022-08-23T07:07:22.471Z,32.80
2022-08-23T07:09:49.061Z,32.90
2022-08-23T07:12:16.960Z,33.10
2022-08-23T07:14:44.167Z,32.80
2022-08-23T07:17:11.190Z,32.80
2022-08-23T07:19:37.823Z,32.90
2022-08-23T07:22:04.782Z,32.30
2022-08-23T07:24:33.604Z,32.70
2022-08-23T07:27:01.399Z,32.70
2022-08-23T07:29:28.068Z,32.90
2022-08-23T07:31:55.107Z,32.70
2022-08-23T07:34:22.077Z,32.80
2022-08-23T07:36:48.920Z,32.70
2022-08-23T07:39:15.602Z,32.30
2022-08-23T07:41:42.382Z,31.90
2022-08-23T07:44:09.430Z,31.80
2022-08-23T07:46:36.937Z,31.80
2022-08-23T07:49:03.829Z,31.90
2022-08-23T07:51:30.958Z,32.20
2022-08-23T07:53:57.801Z,32.20
2022-08-23T07:56:25.021Z,32.30
2022-08-23T07:58:51.597Z,31.80
2022-08-23T08:01:19.326Z,31.60
2022-08-23T08:03:46.623Z,32.00
2022-08-23T08:06:16.207Z,32.70
2022-08-23T08:08:42.934Z,33.00
2022-08-23T08:11:10.909Z,32.70
2022-08-23T08:13:38.223Z,32.50
2022-08-23T08:16:04.943Z,32.60
2022-08-23T08:18:31.947Z,32.50
2022-08-23T08:20:58.913Z,32.20
2022-08-23T08:23:25.621Z,31.50
2022-08-23T08:26:02.235Z,31.70
2022-08-23T08:28:28.820Z,31.90
2022-08-23T08:30:55.448Z,32.10
2022-08-23T08:33:22.095Z,32.00
2022-08-23T08:35:57.669Z,31.30
2022-08-23T08:38:27.125Z,30.60
2022-08-23T08:41:15.426Z,29.80
2022-08-23T08:44:01.257Z,28.70
2022-08-23T08:46:39.902Z,28.40
2022-08-23T08:49:06.955Z,28.20
2022-08-23T08:51:47.187Z,27.90
2022-08-23T08:54:14.356Z,27.70
2022-08-23T08:56:41.217Z,27.60
2022-08-23T08:59:09.289Z,27.90
2022-08-23T09:01:36.470Z,27.90
2022-08-23T09:04:03.354Z,28.10
2022-08-23T09:06:42.011Z,28.30
2022-08-23T09:09:27.103Z,28.40
2022-08-23T09:12:11.400Z,28.80
2022-08-23T09:14:56.551Z,28.80
2022-08-23T09:17:23.124Z,28.70
2022-08-23T09:19:50.420Z,28.80
2022-08-23T09:22:19.214Z,28.50
2022-08-23T09:24:46.341Z,28.20
2022-08-23T09:27:13.193Z,28.40
2022-08-23T09:29:40.252Z,28.60
2022-08-23T09:32:07.635Z,28.80
2022-08-23T09:34:42.155Z,28.90
2022-08-23T09:37:11.692Z,29.00
2022-08-23T09:39:39.257Z,28.70
2022-08-23T09:42:29.579Z,28.50
2022-08-23T09:44:56.402Z,28.30
2022-08-23T09:47:34.667Z,28.60
2022-08-23T09:50:09.065Z,28.30
2022-08-23T09:52:37.547Z,28.40
2022-08-23T09:55:09.445Z,28.80
2022-08-23T09:57:36.057Z,29.10
2022-08-23T10:00:23.338Z,29.10
2022-08-23T10:02:50.290Z,29.30
2022-08-23T10:05:21.526Z,29.50
2022-08-23T10:07:55.510Z,29.70
2022-08-23T10:10:50.958Z,29.90
2022-08-23T10:13:17.843Z,29.90
2022-08-23T10:16:05.728Z,29.60
2022-08-23T10:18:55.649Z,29.80
2022-08-23T10:21:40.653Z,30.00
2022-08-23T10:24:10.249Z,30.00
2022-08-23T10:26:37.977Z,29.90
2022-08-23T10:29:29.477Z,30.00
2022-08-23T10:31:59.401Z,30.10
2022-08-23T10:34:47.109Z,30.30
2022-08-23T10:37:22.198Z,30.40
2022-08-23T10:40:04.471Z,30.10
2022-08-23T10:42:33.917Z,29.60
2022-08-23T10:45:09.601Z,29.40
2022-08-23T10:47:37.529Z,29.40
2022-08-23T10:50:08.235Z,29.80
2022-08-23T10:52:40.486Z,29.80
2022-08-23T10:55:17.268Z,30.00
2022-08-23T10:57:44.513Z,30.40
2022-08-23T11:00:13.024Z,30.40
2022-08-23T11:02:55.618Z,30.10
2022-08-23T11:05:25.640Z,29.60
2022-08-23T11:08:15.556Z,29.60
2022-08-23T11:10:55.969Z,29.50
2022-08-23T11:13:24.357Z,29.90
2022-08-23T11:16:01.027Z,30.20
2022-08-23T11:18:33.727Z,30.50
2022-08-23T11:21:20.579Z,30.50
2022-08-23T11:23:59.082Z,30.50
2022-08-23T11:26:36.204Z,30.50
2022-08-23T11:29:05.887Z,30.40
2022-08-23T11:31:41.081Z,30.40
2022-08-23T11:34:29.920Z,30.20
2022-08-23T11:37:15.385Z,30.10
2022-08-23T11:40:00.274Z,30.20
2022-08-23T11:42:44.077Z,30.30
2022-08-23T11:45:30.239Z,30.50
2022-08-23T11:48:08.805Z,30.40
2022-08-23T11:50:35.570Z,30.70
2022-08-23T11:53:05.286Z,30.30
2022-08-23T11:55:35.042Z,30.10
2022-08-23T11:58:15.658Z,30.10
2022-08-23T12:01:01.100Z,30.30
2022-08-23T12:03:33.611Z,30.40
2022-08-23T12:06:04.919Z,30.50
2022-08-23T12:08:31.444Z,30.40
2022-08-23T12:10:59.546Z,30.50
2022-08-23T12:13:28.944Z,30.60
2022-08-23T12:16:30.979Z,30.40
2022-08-23T12:18:58.999Z,30.40
2022-08-23T12:21:41.808Z,30.40
2022-08-23T12:24:25.353Z,30.50
2022-08-23T12:26:53.575Z,30.50
2022-08-23T12:29:23.274Z,30.60
2022-08-23T12:31:52.921Z,30.70
2022-08-23T12:34:25.348Z,30.70
2022-08-23T12:37:01.750Z,30.70
2022-08-23T12:39:32.490Z,30.80
2022-08-23T12:42:03.181Z,31.10
2022-08-23T12:44:33.970Z,31.10
2022-08-23T12:47:14.357Z,31.20
2022-08-23T12:49:40.966Z,31.20
2022-08-23T12:52:08.669Z,31.00
2022-08-23T12:54:40.083Z,31.10
2022-08-23T12:57:11.610Z,30.90
2022-08-23T12:59:40.489Z,30.80
2022-08-23T13:02:26.447Z,30.50
2022-08-23T13:04:53.142Z,30.40
2022-08-23T13:07:20.840Z,30.40
2022-08-23T13:09:53.655Z,30.60
2022-08-23T13:12:21.923Z,30.70
2022-08-23T13:14:49.447Z,30.80
2022-08-23T13:17:22.226Z,30.90
2022-08-23T13:19:49.807Z,30.80
2022-08-23T13:22:19.535Z,30.70
2022-08-23T13:25:24.784Z,30.70
2022-08-23T13:27:44.069Z,30.60
2022-08-23T13:30:10.675Z,30.70
2022-08-23T13:32:39.099Z,30.80
2022-08-23T13:35:25.169Z,30.60
2022-08-23T13:37:52.564Z,30.70
2022-08-23T13:40:24.172Z,31.00
2022-08-23T13:42:52.775Z,31.40
2022-08-23T13:45:20.320Z,31.70
2022-08-23T13:47:49.593Z,31.70
2022-08-23T13:50:34.685Z,31.60
2022-08-23T13:53:16.708Z,31.70
2022-08-23T13:55:47.713Z,31.60
2022-08-23T13:58:17.231Z,31.40
2022-08-23T14:00:46.960Z,31.30
2022-08-23T14:03:22.390Z,31.30
2022-08-23T14:05:49.035Z,31.20
2022-08-23T14:08:15.639Z,31.20
2022-08-23T14:10:42.725Z,31.20
2022-08-23T14:13:10.894Z,31.20
2022-08-23T14:18:24.975Z,31.60
2022-08-23T14:20:52.120Z,31.80
2022-08-23T14:23:19.059Z,31.80
2022-08-23T14:25:45.915Z,31.80
2022-08-23T14:28:13.829Z,31.60
2022-08-23T14:30:40.490Z,31.50
2022-08-23T14:33:07.341Z,31.60
2022-08-23T14:35:34.062Z,31.40
2022-08-23T14:38:03.469Z,31.30
2022-08-23T14:40:30.935Z,31.40
2022-08-23T14:42:57.591Z,31.40
2022-08-23T14:45:24.172Z,31.20
2022-08-23T14:47:50.744Z,31.00
2022-08-23T14:50:17.372Z,30.90
2022-08-23T14:52:45.792Z,30.90
2022-08-23T14:55:12.604Z,30.80
2022-08-23T14:57:39.221Z,30.80
2022-08-23T15:00:07.340Z,30.90
2022-08-23T15:02:36.324Z,31.00
2022-08-23T15:05:03.040Z,30.90
2022-08-23T15:07:29.623Z,30.90
2022-08-23T15:09:56.201Z,30.80
2022-08-23T15:15:13.304Z,30.60
2022-08-23T15:17:52.083Z,30.50
2022-08-23T15:20:19.823Z,30.60
2022-08-23T15:23:03.463Z,30.50
2022-08-23T15:25:30.669Z,30.50
2022-08-23T15:27:57.583Z,30.50
2022-08-23T15:30:24.286Z,30.40
2022-08-23T15:32:52.731Z,30.30
2022-08-23T15:35:23.814Z,30.20
2022-08-23T15:37:50.452Z,30.20
2022-08-23T15:40:17.129Z,30.20
2022-08-23T15:42:43.747Z,30.40
2022-08-23T15:45:10.574Z,30.50
2022-08-23T15:47:41.677Z,30.60
2022-08-23T15:50:08.503Z,30.70
2022-08-23T15:52:35.088Z,30.70
2022-08-23T15:55:01.672Z,30.60
2022-08-23T15:57:28.239Z,30.50
2022-08-23T15:59:55.472Z,30.50
2022-08-23T16:02:22.175Z,30.30
2022-08-23T16:04:48.882Z,30.10
2022-08-23T16:07:15.960Z,29.90
2022-08-23T16:09:42.664Z,29.60
2022-08-23T16:12:09.353Z,29.50
2022-08-23T16:14:36.464Z,29.30
2022-08-23T16:17:03.589Z,29.20
2022-08-23T16:19:30.513Z,29.20
2022-08-23T16:21:57.361Z,29.20
2022-08-23T16:24:24.730Z,29.10
2022-08-23T16:26:51.748Z,29.10
2022-08-23T16:29:18.578Z,29.00
2022-08-23T16:31:45.312Z,28.80
2022-08-23T16:34:13.344Z,28.60
2022-08-23T16:36:40.420Z,28.70
2022-08-23T16:39:07.213Z,28.70
2022-08-23T16:41:33.853Z,28.70
2022-08-23T16:44:00.442Z,28.80
2022-08-23T16:46:28.419Z,28.70
2022-08-23T16:48:54.992Z,28.80
2022-08-23T16:51:21.852Z,28.70
2022-08-23T16:54:02.304Z,28.60
2022-08-23T16:56:30.235Z,28.50
2022-08-23T16:58:56.881Z,28.40
2022-08-23T17:01:23.595Z,28.30
2022-08-23T17:03:50.558Z,28.10
2022-08-23T17:06:17.192Z,28.00
2022-08-23T17:08:43.789Z,27.90
2022-08-23T17:11:10.754Z,27.70
2022-08-23T17:13:37.323Z,27.70
2022-08-23T17:16:03.995Z,27.60
2022-08-23T17:18:31.625Z,27.60
2022-08-23T17:20:58.222Z,27.50
2022-08-23T17:23:24.825Z,27.40
2022-08-23T17:25:51.561Z,27.40
2022-08-23T17:28:18.161Z,27.30
2022-08-23T17:30:44.757Z,27.30
2022-08-23T17:33:11.329Z,27.20
2022-08-23T17:35:39.281Z,27.10
2022-08-23T17:38:06.149Z,27.00
2022-08-23T17:40:34.373Z,27.00
2022-08-23T17:43:01.747Z,26.90
2022-08-23T17:45:29.366Z,26.80
2022-08-23T17:47:56.168Z,26.70
2022-08-23T17:50:22.792Z,26.60
2022-08-23T17:52:50.792Z,26.50
2022-08-23T17:55:18.466Z,26.40
2022-08-23T17:57:45.602Z,26.30
2022-08-23T18:00:14.745Z,26.30
2022-08-23T18:02:41.737Z,26.20
2022-08-23T18:05:08.500Z,26.10
2022-08-23T18:07:35.152Z,26.00
2022-08-23T18:10:01.742Z,25.90
2022-08-23T18:12:28.324Z,25.80
2022-08-23T18:14:55.060Z,25.70
2022-08-23T18:17:22.025Z,25.70
2022-08-23T18:19:48.629Z,25.50
2022-08-23T18:22:15.273Z,25.40
2022-08-23T18:24:41.991Z,25.40
2022-08-23T18:27:27.042Z,25.30
2022-08-23T18:29:53.678Z,25.30
2022-08-23T18:32:20.526Z,25.20
2022-08-23T18:34:47.385Z,25.10
2022-08-23T18:37:16.997Z,25.10
2022-08-23T18:39:44.305Z,25.00
2022-08-23T18:42:12.047Z,25.00
2022-08-23T18:44:38.652Z,24.90
2022-08-23T18:47:05.292Z,24.80
2022-08-23T18:49:33.482Z,24.70
2022-08-23T18:52:00.426Z,24.70
2022-08-23T18:54:29.755Z,24.50
2022-08-23T18:56:58.546Z,24.50
2022-08-23T18:59:25.124Z,24.50
2022-08-23T19:01:51.895Z,24.40
2022-08-23T19:04:18.631Z,24.40
2022-08-23T19:06:46.890Z,24.40
2022-08-23T19:09:13.789Z,24.40
2022-08-23T19:11:40.747Z,24.30
2022-08-23T19:14:08.648Z,24.20
2022-08-23T19:16:35.309Z,24.10
2022-08-23T19:19:01.941Z,24.00
2022-08-23T19:21:28.804Z,23.90
2022-08-23T19:23:55.814Z,23.80
2022-08-23T19:26:24.569Z,23.80
2022-08-23T19:28:51.155Z,23.70
2022-08-23T19:31:18.457Z,23.70
2022-08-23T19:33:45.065Z,23.70
2022-08-23T19:36:29.218Z,23.60
2022-08-23T19:38:58.442Z,23.60
2022-08-23T19:41:25.033Z,23.60
2022-08-23T19:43:52.114Z,23.60
2022-08-23T19:46:18.701Z,23.50
2022-08-23T19:48:45.790Z,23.50
2022-08-23T19:51:13.191Z,23.30
2022-08-23T19:53:39.822Z,23.30
2022-08-23T19:56:07.471Z,23.20
2022-08-23T19:58:34.248Z,23.10
2022-08-23T20:01:00.916Z,23.00
2022-08-23T20:03:27.537Z,23.00
2022-08-23T20:05:54.137Z,23.00
2022-08-23T20:08:20.729Z,22.90
2022-08-23T20:10:47.419Z,22.90
2022-08-23T20:13:14.011Z,22.90
2022-08-23T20:15:40.623Z,22.80
2022-08-23T20:18:07.284Z,22.80
2022-08-23T20:20:33.873Z,22.80
2022-08-23T20:23:19.269Z,22.70
2022-08-23T20:25:45.912Z,22.70
2022-08-23T20:28:12.852Z,22.70
2022-08-23T20:30:39.467Z,22.80
2022-08-23T20:33:06.039Z,22.70
2022-08-23T20:35:32.648Z,22.60
2022-08-23T20:37:59.729Z,22.60
2022-08-23T20:40:26.383Z,22.50
2022-08-23T20:42:52.997Z,22.40
2022-08-23T20:45:20.066Z,22.40
2022-08-23T20:47:46.676Z,22.50
2022-08-23T20:50:13.305Z,22.40
2022-08-23T20:52:39.931Z,22.40
2022-08-23T20:55:10.700Z,22.50
2022-08-23T20:57:38.457Z,22.40
2022-08-23T21:00:05.597Z,22.40
2022-08-23T21:02:32.246Z,22.40
2022-08-23T21:04:59.231Z,22.40
2022-08-23T21:07:25.874Z,22.30
2022-08-23T21:09:54.712Z,22.30
2022-08-23T21:12:21.339Z,22.30
2022-08-23T21:14:48.012Z,22.30
2022-08-23T21:17:14.583Z,22.20
2022-08-23T21:19:41.225Z,22.10
2022-08-23T21:22:07.803Z,22.00
2022-08-23T21:24:34.371Z,22.00
2022-08-23T21:27:00.966Z,21.90
2022-08-23T21:29:27.624Z,21.90
2022-08-23T21:31:54.279Z,21.80
2022-08-23T21:34:20.873Z,21.70
2022-08-23T21:36:47.620Z,21.80
2022-08-23T21:39:14.208Z,21.80
2022-08-23T21:41:41.723Z,21.80
2022-08-23T21:44:10.327Z,21.70
2022-08-23T21:46:36.950Z,21.70
2022-08-23T21:49:04.019Z,21.60
2022-08-23T21:51:30.599Z,21.70
2022-08-23T21:53:57.243Z,21.60
2022-08-23T21:56:24.462Z,21.50
2022-08-23T21:58:53.353Z,21.50
2022-08-23T22:01:20.056Z,21.50
2022-08-23T22:03:46.737Z,21.50
2022-08-23T22:06:14.200Z,21.50
2022-08-23T22:08:41.433Z,21.50
2022-08-23T22:11:08.028Z,21.50
2022-08-23T22:13:35.135Z,21.40
2022-08-23T22:16:01.851Z,21.30
2022-08-23T22:18:28.910Z,21.20
2022-08-23T22:20:55.564Z,21.10
2022-08-23T22:23:22.389Z,21.10
2022-08-23T22:25:48.981Z,21.10
2022-08-23T22:28:15.581Z,21.20
2022-08-23T22:30:42.644Z,21.20
2022-08-23T22:33:09.609Z,21.30
2022-08-23T22:35:36.387Z,21.30
2022-08-23T22:38:13.757Z,21.30
2022-08-23T22:40:48.271Z,21.10
2022-08-23T22:43:14.930Z,20.90
2022-08-23T22:45:48.492Z,20.60
2022-08-23T22:48:15.108Z,20.40
2022-08-23T22:50:41.702Z,20.20
2022-08-23T22:53:08.304Z,20.20
2022-08-23T22:55:34.889Z,20.10
2022-08-23T22:58:02.069Z,20.10
2022-08-23T23:00:28.779Z,20.10
2022-08-23T23:02:57.871Z,20.10
2022-08-23T23:05:24.471Z,20.10
2022-08-23T23:08:09.845Z,20.10
2022-08-23T23:10:36.761Z,20.20
2022-08-23T23:13:03.403Z,20.10
2022-08-23T23:15:30.137Z,20.10
2022-08-23T23:17:56.752Z,20.00
2022-08-23T23:20:39.324Z,20.00
2022-08-23T23:23:06.608Z,19.90
2022-08-23T23:25:34.439Z,19.90
2022-08-23T23:28:02.314Z,19.90
2022-08-23T23:30:29.023Z,19.90
2022-08-23T23:32:55.776Z,19.80
2022-08-23T23:35:22.414Z,19.80
2022-08-23T23:37:49.722Z,19.70
2022-08-23T23:40:16.847Z,19.50
2022-08-23T23:42:43.588Z,19.50
2022-08-23T23:45:11.205Z,19.40
2022-08-23T23:47:37.832Z,19.40
2022-08-23T23:50:04.958Z,19.30
2022-08-23T23:52:31.536Z,19.20
2022-08-23T23:54:58.169Z,19.20
2022-08-23T23:57:24.741Z,19.00
2022-08-23T23:59:52.912Z,18.90
